Time;durP1;ratioP1;P1;durP2;ratioP2;P2;SDS_P1;SDS_P2;PMS_P1;PMS_P2;Temp;Humidity;BMP_temperature;BMP_pressure;BME280_temperature;BME280_humidity;BME280_pressure;Samples;Min_cycle;Max_cycle;Signal;HPM_P1;HPM_P2
2023/07/07 00:07:31;;;;;;;2.78;1.40;;;11.50;99.90;;;;;;21021681;28;20067;-50
2023/07/07 00:17:33;;;;;;;2.25;1.10;;;11.40;99.90;;;;;;21011752;28;20488;-48
2023/07/07 00:27:34;;;;;;;2.13;1.15;;;11.10;99.90;;;;;;21022481;28;20068;-45
2023/07/07 00:37:36;;;;;;;5.70;1.42;;;11.20;99.90;;;;;;21016551;28;20106;-51
2023/07/07 00:47:45;;;;;;;2.50;1.25;;;11.20;99.90;;;;;;20976867;28;20504;-43
2023/07/07 00:57:47;;;;;;;3.10;1.23;;;11.00;99.90;;;;;;21017451;28;20088;-44
2023/07/07 01:07:51;;;;;;;2.63;1.23;;;10.80;99.90;;;;;;21027685;28;20063;-45
2023/07/07 01:18:12;;;;;;;2.40;1.10;;;10.90;99.90;;;;;;21013713;28;20115;-49
2023/07/07 01:28:14;;;;;;;2.73;1.30;;;10.80;99.90;;;;;;20992884;28;20059;-48
2023/07/07 01:38:48;;;;;;;2.60;1.40;;;11.30;99.90;;;;;;21000395;28;20323;-43
2023/07/07 01:48:58;;;;;;;2.45;1.17;;;11.30;99.90;;;;;;20826525;28;20264;-49
2023/07/07 01:59:00;;;;;;;2.37;1.20;;;11.20;99.90;;;;;;20825737;28;20140;-46
2023/07/07 02:09:02;;;;;;;3.38;1.50;;;11.10;99.90;;;;;;20832096;28;20077;-43
2023/07/07 02:19:03;;;;;;;2.28;1.33;;;11.20;99.90;;;;;;20876309;28;20545;-48
2023/07/07 02:29:05;;;;;;;3.65;1.60;;;11.30;99.90;;;;;;21015852;28;20063;-44
2023/07/07 02:39:07;;;;;;;3.28;1.60;;;11.00;99.90;;;;;;21019722;28;20082;-48
2023/07/07 02:49:08;;;;;;;4.50;1.60;;;10.90;99.90;;;;;;20994223;28;20171;-43
2023/07/07 02:59:10;;;;;;;2.83;1.35;;;10.90;99.90;;;;;;20986249;28;20076;-44
2023/07/07 03:09:11;;;;;;;2.85;1.50;;;10.90;99.90;;;;;;20991183;28;20530;-47
2023/07/07 03:19:22;;;;;;;2.88;1.60;;;10.80;99.90;;;;;;20972786;28;20072;-50
2023/07/07 03:29:31;;;;;;;3.10;1.50;;;10.80;99.90;;;;;;21000577;28;20109;-44
2023/07/07 03:39:32;;;;;;;2.17;1.30;;;10.30;99.90;;;;;;21002302;28;20115;-44
2023/07/07 03:49:34;;;;;;;4.45;1.30;;;10.00;99.90;;;;;;20983505;28;20075;-43
2023/07/07 03:59:38;;;;;;;1.95;1.27;;;10.20;99.90;;;;;;20996459;28;20147;-51
2023/07/07 04:09:39;;;;;;;3.20;1.30;;;10.20;99.90;;;;;;21013870;28;20068;-49
2023/07/07 04:19:41;;;;;;;2.65;1.35;;;10.30;99.90;;;;;;21008310;28;20462;-42
2023/07/07 04:29:43;;;;;;;3.83;1.58;;;10.40;99.90;;;;;;20973038;28;20493;-51
2023/07/07 04:39:44;;;;;;;2.40;1.58;;;10.40;99.90;;;;;;20975870;28;20174;-43
2023/07/07 04:49:46;;;;;;;3.60;1.90;;;10.40;99.90;;;;;;21038313;28;20087;-49
2023/07/07 04:59:48;;;;;;;3.40;1.45;;;10.70;99.90;;;;;;21045226;28;20080;-48
2023/07/07 05:09:49;;;;;;;2.83;1.70;;;10.80;99.90;;;;;;21029539;28;20063;-44
2023/07/07 05:19:51;;;;;;;3.20;1.63;;;10.90;99.90;;;;;;21050172;28;20105;-48
2023/07/07 05:29:53;;;;;;;3.03;1.67;;;;;;;;;;21053862;28;20074;-43
2023/07/07 07:52:04;;;;;;;3.35;2.10;;;26.60;90.90;;;;;;25520701;22;1464919;-45
2023/07/07 08:02:10;;;;;;;3.42;2.22;;;26.60;93.20;;;;;;25619808;23;20085;-56
2023/07/07 08:12:12;;;;;;;2.80;2.30;;;26.50;93.60;;;;;;25661750;23;20009;-45
2023/07/07 08:22:17;;;;;;;2.60;2.13;;;26.20;94.40;;;;;;25594245;23;20380;-56
2023/07/07 08:32:21;;;;;;;2.38;2.17;;;26.00;92.70;;;;;;25617832;23;20004;-56
2023/07/07 08:42:30;;;;;;;3.65;2.00;;;25.60;94.20;;;;;;25620475;23;20009;-47
2023/07/07 08:53:10;;;;;;;3.40;2.53;;;25.50;94.20;;;;;;25756472;23;20020;-45
2023/07/07 09:03:17;;;;;;;3.65;2.05;;;25.60;93.10;;;;;;25753545;23;20004;-47
2023/07/07 09:13:32;;;;;;;2.95;2.22;;;25.60;95.40;;;;;;25754413;23;20332;-48
2023/07/07 09:23:38;;;;;;;3.75;2.20;;;25.60;95.30;;;;;;25754385;23;20001;-56
2023/07/07 09:33:40;;;;;;;5.43;2.67;;;25.50;95.90;;;;;;25753396;23;20469;-46
2023/07/07 09:44:23;;;;;;;2.42;2.17;;;25.50;95.60;;;;;;25711708;23;20328;-48
2023/07/07 09:54:25;;;;;;;3.30;2.47;;;25.60;96.80;;;;;;25752495;23;20301;-49
2023/07/07 10:04:29;;;;;;;3.70;2.33;;;25.80;94.70;;;;;;25709535;23;20043;-57
2023/07/07 10:14:31;;;;;;;3.30;2.60;;;25.80;96.10;;;;;;25712297;23;20004;-45
2023/07/07 10:24:33;;;;;;;3.08;2.13;;;25.90;94.30;;;;;;25713037;23;20517;-45
2023/07/07 10:34:42;;;;;;;3.05;2.40;;;26.00;96.00;;;;;;25711270;23;20005;-58
2023/07/07 10:44:45;;;;;;;3.00;2.50;;;26.50;96.70;;;;;;25741186;23;20012;-50
2023/07/07 10:54:59;;;;;;;3.58;2.70;;;26.00;95.70;;;;;;25709892;23;20005;-48
2023/07/07 11:05:15;;;;;;;2.90;2.60;;;25.20;97.00;;;;;;25751078;23;20009;-46
2023/07/07 11:15:46;;;;;;;4.15;3.00;;;24.70;99.80;;;;;;25750848;23;20031;-46
2023/07/07 11:26:02;;;;;;;4.90;3.20;;;26.70;98.80;;;;;;25751062;23;20016;-58
2023/07/07 11:36:41;;;;;;;4.95;3.60;;;27.10;93.60;;;;;;25709098;23;20497;-54
2023/07/07 11:46:49;;;;;;;5.40;3.40;;;25.90;95.00;;;;;;25728783;23;20021;-46
2023/07/07 11:57:07;;;;;;;3.63;2.85;;;25.90;97.00;;;;;;25750642;23;20005;-47
2023/07/07 12:07:16;;;;;;;3.60;2.95;;;25.70;98.10;;;;;;25707011;23;20005;-56
2023/07/07 12:17:23;;;;;;;4.82;2.47;;;25.50;99.50;;;;;;25749747;23;20008;-48
2023/07/07 12:27:41;;;;;;;3.35;2.47;;;27.00;97.20;;;;;;25756826;23;20001;-58
2023/07/07 12:37:44;;;;;;;5.10;2.70;;;28.00;95.40;;;;;;25757419;23;20004;-45
2023/07/07 12:47:59;;;;;;;5.35;2.83;;;28.30;95.80;;;;;;25715887;23;20019;-58
2023/07/07 12:58:07;;;;;;;3.10;2.65;;;28.00;95.10;;;;;;25756357;23;20004;-48
2023/07/07 13:08:08;;;;;;;3.83;3.08;;;27.80;94.90;;;;;;25755382;23;20001;-47
2023/07/07 13:18:12;;;;;;;6.75;3.97;;;28.10;96.00;;;;;;25714968;23;20331;-46
2023/07/07 13:28:16;;;;;;;4.68;4.00;;;28.30;95.70;;;;;;25713873;23;20331;-48
2023/07/07 13:38:21;;;;;;;4.55;3.80;;;27.60;97.10;;;;;;25713164;23;20066;-47
2023/07/07 13:48:24;;;;;;;5.88;4.05;;;27.10;95.10;;;;;;25712681;23;20016;-45
2023/07/07 13:58:26;;;;;;;5.28;3.97;;;27.30;95.50;;;;;;25712685;23;20383;-45
2023/07/07 14:08:27;;;;;;;4.57;4.10;;;25.40;95.00;;;;;;25713124;23;20009;-48
2023/07/07 14:18:42;;;;;;;4.05;3.15;;;23.70;97.90;;;;;;25713468;23;20004;-46
2023/07/07 14:28:45;;;;;;;4.47;3.88;;;23.00;99.50;;;;;;25754284;23;20039;-47
2023/07/07 14:38:58;;;;;;;7.18;3.70;;;22.90;99.60;;;;;;25711143;23;20012;-56
2023/07/07 14:49:26;;;;;;;4.50;3.65;;;22.70;99.90;;;;;;25723424;23;20478;-51
2023/07/07 14:59:35;;;;;;;4.28;3.42;;;23.50;99.40;;;;;;25707239;23;20008;-47
2023/07/07 15:09:36;;;;;;;5.78;4.05;;;24.80;98.20;;;;;;25751217;23;20008;-46
2023/07/07 15:19:40;;;;;;;6.72;4.35;;;23.10;99.90;;;;;;25709739;23;20067;-55
2023/07/07 15:29:42;;;;;;;5.75;3.90;;;24.70;98.30;;;;;;25709442;23;20055;-54
2023/07/07 15:39:43;;;;;;;6.75;3.78;;;26.30;96.20;;;;;;25709077;23;20005;-53
2023/07/07 15:49:45;;;;;;;5.28;3.08;;;25.50;96.60;;;;;;25709105;23;20017;-56
2023/07/07 15:59:47;;;;;;;4.75;3.47;;;25.60;97.10;;;;;;25714061;23;20040;-46
2023/07/07 16:09:48;;;;;;;6.03;3.85;;;25.70;95.30;;;;;;25715762;23;20004;-46
2023/07/07 16:19:50;;;;;;;5.55;4.07;;;24.30;96.60;;;;;;25716165;23;20347;-45
2023/07/07 16:29:52;;;;;;;7.35;4.57;;;22.80;98.90;;;;;;25715356;23;20023;-45
2023/07/07 16:39:53;;;;;;;5.47;4.03;;;22.00;99.90;;;;;;25710487;23;20011;-47
2023/07/07 16:49:55;;;;;;;8.85;4.60;;;21.50;99.90;;;;;;25711249;23;20024;-50
2023/07/07 16:59:57;;;;;;;6.38;4.57;;;19.70;99.90;;;;;;25710156;23;20004;-55
2023/07/07 17:09:58;;;;;;;8.55;4.25;;;18.50;99.90;;;;;;25710319;23;20013;-52
2023/07/07 17:20:00;;;;;;;8.10;5.18;;;17.80;99.90;;;;;;25709538;23;20452;-46
2023/07/07 17:30:10;;;;;;;11.63;6.90;;;17.30;99.90;;;;;;25709981;23;20004;-54
2023/07/07 17:40:14;;;;;;;15.35;10.27;;;16.90;99.90;;;;;;25749605;23;20482;-53
2023/07/07 17:50:22;;;;;;;17.67;11.10;;;16.60;99.90;;;;;;25681899;23;20032;-50
2023/07/07 18:00:31;;;;;;;8.70;5.15;;;16.30;99.90;;;;;;25753262;23;20031;-44
2023/07/07 18:10:34;;;;;;;7.97;4.78;;;15.90;99.90;;;;;;25752900;23;20012;-44
2023/07/07 18:20:40;;;;;;;9.45;5.60;;;15.70;99.90;;;;;;25710189;23;20398;-44
2023/07/07 18:30:54;;;;;;;8.48;5.45;;;15.60;99.90;;;;;;25751812;23;20075;-45
2023/07/07 18:40:56;;;;;;;8.10;5.65;;;15.40;99.90;;;;;;25750911;23;20015;-49
2023/07/07 18:50:58;;;;;;;10.10;6.75;;;15.20;99.90;;;;;;25709966;23;20110;-45
2023/07/07 19:00:59;;;;;;;9.98;6.00;;;15.00;99.90;;;;;;25683376;23;20005;-44
2023/07/07 19:11:01;;;;;;;9.60;6.55;;;14.80;99.90;;;;;;25708801;23;20501;-52
2023/07/07 19:21:09;;;;;;;22.48;16.60;;;14.60;99.90;;;;;;25708709;23;20462;-46
2023/07/07 19:31:13;;;;;;;25.08;16.42;;;14.50;99.90;;;;;;25750434;23;20005;-45
2023/07/07 19:41:18;;;;;;;9.18;6.38;;;14.30;99.90;;;;;;25707453;23;20032;-44
2023/07/07 19:51:33;;;;;;;11.07;7.00;;;14.10;99.90;;;;;;25708392;23;20020;-46
2023/07/07 20:01:34;;;;;;;12.15;8.20;;;13.90;99.90;;;;;;25709829;23;20059;-44
2023/07/07 20:11:36;;;;;;;9.85;7.20;;;13.70;99.90;;;;;;25708667;23;20001;-52
2023/07/07 20:21:37;;;;;;;11.98;7.88;;;13.60;99.90;;;;;;25707793;23;20550;-51
2023/07/07 20:31:39;;;;;;;12.02;8.65;;;13.70;99.90;;;;;;25707662;23;20497;-49
2023/07/07 20:41:42;;;;;;;12.18;8.48;;;13.50;99.90;;;;;;25708522;23;20005;-45
2023/07/07 20:51:44;;;;;;;13.07;9.15;;;13.50;99.90;;;;;;25714585;23;20013;-44
2023/07/07 21:01:46;;;;;;;15.52;9.93;;;13.30;99.90;;;;;;25714458;23;20414;-44
2023/07/07 21:11:49;;;;;;;13.45;8.60;;;13.30;99.90;;;;;;25714016;23;20305;-51
2023/07/07 21:21:50;;;;;;;14.35;8.85;;;13.20;99.90;;;;;;25713638;23;20044;-46
2023/07/07 21:31:52;;;;;;;14.63;9.60;;;13.20;99.90;;;;;;25713611;23;20008;-46
2023/07/07 21:41:55;;;;;;;13.63;8.90;;;13.30;99.90;;;;;;25712502;23;20309;-50
2023/07/07 21:52:00;;;;;;;13.55;8.55;;;13.30;99.90;;;;;;25712188;23;20021;-44
2023/07/07 22:02:10;;;;;;;17.48;9.95;;;13.30;99.90;;;;;;25713729;23;20466;-44
2023/07/07 22:12:11;;;;;;;16.37;11.10;;;13.20;99.90;;;;;;25756183;23;20005;-47
2023/07/07 22:22:13;;;;;;;18.77;11.73;;;13.20;99.90;;;;;;25711323;23;20792;-44
2023/07/07 22:32:14;;;;;;;19.08;11.65;;;13.10;99.90;;;;;;25710558;23;20084;-51
2023/07/07 22:42:16;;;;;;;17.40;11.27;;;13.10;99.90;;;;;;25710624;23;20020;-51
2023/07/07 22:52:19;;;;;;;19.48;12.15;;;13.00;99.90;;;;;;25710838;23;20009;-45
2023/07/07 23:02:21;;;;;;;19.20;12.23;;;13.00;99.90;;;;;;25710508;23;20031;-45
2023/07/07 23:12:22;;;;;;;21.52;12.82;;;13.10;99.90;;;;;;25710988;23;20004;-50
2023/07/07 23:22:29;;;;;;;20.73;12.63;;;13.00;99.90;;;;;;25711617;23;20035;-50
2023/07/07 23:32:31;;;;;;;19.17;12.27;;;13.10;99.90;;;;;;25752851;23;20000;-45
2023/07/07 23:42:33;;;;;;;24.83;13.52;;;13.10;99.90;;;;;;25710657;23;20012;-54
2023/07/07 23:52:35;;;;;;;21.15;13.07;;;13.00;99.90;;;;;;25751658;23;20008;-45
